SBPG/PNG METAR and TAF weather

Enter ICAO airport designator
Station Type Date Time Source
SBPG METAR 2019/12/15 16:00 UTC NOAA

SBPG 151600Z 31006KT 8000 -RA SCT040 BKN083 26/19 Q1017


Station Type Date Time Source
SBPG Decoded METAR 2019/12/15 16:00 UTC NOAA

Paranagua, Brazil (SBPG) 25-31S 048-31W
Dec 15, 2019 - 11:00 AM EST / 2019.12.15 1600 UTC
Wind: from the NW (310 degrees) at 7 MPH (6 KT):0
Visibility: 4 mile(s):0
Sky conditions: mostly cloudy
Weather: light rain
Temperature: 78 F (26 C)
Dew Point: 66 F (19 C)
Relative Humidity: 65%
Pressure (altimeter): 30.03 in. Hg (1017 hPa)
ob: SBPG 151600Z 31006KT 8000 -RA SCT040 BKN083 26/19 Q1017
cycle: 16

Station Type Date Time Source
SBPG TAF UTC NOAA

Error!

Example: see airport list